createdAt,value
2023-06-10T00:00:07.129Z,7.80
2023-06-10T00:02:34.205Z,8.30
2023-06-10T00:05:01.312Z,9.00
2023-06-10T00:07:28.692Z,8.20
2023-06-10T00:09:56.471Z,8.13
2023-06-10T00:12:23.379Z,8.20
2023-06-10T00:14:52.575Z,8.70
2023-06-10T00:17:19.835Z,7.83
2023-06-10T00:19:48.384Z,7.80
2023-06-10T00:22:15.656Z,8.27
2023-06-10T00:24:43.171Z,7.97
2023-06-10T00:27:10.060Z,8.20
2023-06-10T00:29:36.997Z,8.83
2023-06-10T00:32:04.398Z,8.63
2023-06-10T00:34:31.570Z,8.00
2023-06-10T00:36:58.505Z,8.03
2023-06-10T00:39:25.497Z,7.27
2023-06-10T00:41:52.391Z,7.97
2023-06-10T00:44:19.344Z,8.40
2023-06-10T00:46:46.864Z,7.87
2023-06-10T00:49:13.961Z,8.27
2023-06-10T00:51:41.163Z,7.73
2023-06-10T00:54:08.796Z,7.20
2023-06-10T00:56:36.316Z,8.60
2023-06-10T00:59:03.530Z,8.60
2023-06-10T01:01:31.055Z,7.57
2023-06-10T01:04:00.016Z,8.00
2023-06-10T01:07:04.375Z,8.87
2023-06-10T01:09:41.951Z,8.53
2023-06-10T01:12:15.626Z,8.83
2023-06-10T01:14:46.363Z,8.67
2023-06-10T01:17:13.586Z,8.30
2023-06-10T01:19:42.120Z,9.10
2023-06-10T01:22:09.006Z,8.90
2023-06-10T01:24:35.972Z,8.63
2023-06-10T01:27:09.832Z,8.47
2023-06-10T01:29:50.454Z,8.67
2023-06-10T01:32:27.949Z,8.80
2023-06-10T01:34:57.132Z,9.20
2023-06-10T01:37:27.419Z,8.70
2023-06-10T01:39:59.689Z,8.10
2023-06-10T01:42:27.325Z,9.17
2023-06-10T01:44:54.628Z,8.23
2023-06-10T01:47:21.899Z,8.53
2023-06-10T01:49:48.838Z,9.23
2023-06-10T01:52:16.006Z,8.67
2023-06-10T01:54:43.044Z,8.40
2023-06-10T01:57:09.952Z,8.30
2023-06-10T01:59:37.699Z,8.93
2023-06-10T02:02:05.821Z,10.03
2023-06-10T02:04:39.337Z,9.00
2023-06-10T02:07:06.998Z,9.10
2023-06-10T02:09:45.586Z,8.40
2023-06-10T02:12:13.180Z,8.30
2023-06-10T02:14:41.000Z,9.20
2023-06-10T02:17:08.212Z,9.20
2023-06-10T02:19:37.909Z,9.30
2023-06-10T02:22:05.128Z,9.30
2023-06-10T02:24:32.015Z,9.37
2023-06-10T02:27:01.656Z,8.90
2023-06-10T02:29:28.611Z,9.70
2023-06-10T02:31:55.567Z,9.27
2023-06-10T02:34:22.806Z,9.70
2023-06-10T02:36:52.516Z,9.50
2023-06-10T02:39:19.434Z,9.23
2023-06-10T02:41:46.396Z,10.67
2023-06-10T02:44:13.304Z,9.93
2023-06-10T02:46:40.358Z,10.00
2023-06-10T02:49:07.368Z,9.23
2023-06-10T02:51:34.213Z,9.57
2023-06-10T02:54:01.125Z,10.70
2023-06-10T02:56:28.191Z,10.80
2023-06-10T02:58:55.075Z,10.20
2023-06-10T03:01:22.106Z,11.00
2023-06-10T03:03:49.106Z,9.70
2023-06-10T03:06:16.100Z,10.30
2023-06-10T03:08:43.269Z,11.20
2023-06-10T03:11:10.297Z,11.00
2023-06-10T03:13:37.262Z,10.53
2023-06-10T03:16:04.610Z,10.47
2023-06-10T03:18:31.622Z,9.80
2023-06-10T03:21:03.608Z,10.00
2023-06-10T03:23:30.979Z,10.10
2023-06-10T03:25:58.545Z,10.10
2023-06-10T03:28:25.441Z,10.80
2023-06-10T03:30:52.994Z,10.60
2023-06-10T03:33:27.198Z,10.17
2023-06-10T03:35:57.725Z,10.47
2023-06-10T03:38:24.632Z,10.30
2023-06-10T03:40:51.479Z,10.60
2023-06-10T03:43:18.534Z,10.60
2023-06-10T03:45:46.444Z,11.60
2023-06-10T03:48:13.410Z,11.20
2023-06-10T03:50:43.252Z,12.77
2023-06-10T03:53:10.124Z,11.90
2023-06-10T03:55:37.470Z,11.23
2023-06-10T03:58:04.340Z,11.87
2023-06-10T04:00:31.269Z,12.17
2023-06-10T04:02:59.687Z,11.53
2023-06-10T04:05:27.425Z,11.43
2023-06-10T04:07:54.758Z,11.33
2023-06-10T04:10:22.155Z,11.60
2023-06-10T04:13:10.379Z,10.60
2023-06-10T04:15:37.908Z,10.83
2023-06-10T04:18:06.741Z,10.30
2023-06-10T04:20:33.853Z,10.57
2023-06-10T04:23:01.029Z,12.43
2023-06-10T04:25:29.093Z,11.10
2023-06-10T04:27:56.248Z,10.77
2023-06-10T04:30:23.706Z,10.60
2023-06-10T04:32:54.826Z,10.83
2023-06-10T04:35:26.094Z,10.90
2023-06-10T04:37:56.133Z,10.53
2023-06-10T04:40:24.294Z,11.00
2023-06-10T04:42:51.176Z,10.07
2023-06-10T04:45:21.145Z,9.40
2023-06-10T04:47:48.693Z,9.90
2023-06-10T04:50:19.231Z,9.70
2023-06-10T04:52:46.659Z,10.10
2023-06-10T04:55:13.534Z,10.40
2023-06-10T04:57:40.410Z,11.00
2023-06-10T05:00:08.056Z,10.70
2023-06-10T05:02:35.066Z,11.00
2023-06-10T05:05:01.984Z,11.20
2023-06-10T05:07:28.894Z,11.03
2023-06-10T05:09:56.093Z,10.80
2023-06-10T05:12:23.474Z,12.30
2023-06-10T05:14:50.325Z,10.60
2023-06-10T05:17:17.206Z,11.63
2023-06-10T05:19:44.686Z,11.13
2023-06-10T05:22:11.688Z,10.70
2023-06-10T05:24:38.558Z,11.63
2023-06-10T05:27:06.015Z,11.53
2023-06-10T05:29:33.091Z,10.77
2023-06-10T05:32:04.327Z,10.53
2023-06-10T05:34:32.231Z,11.60
2023-06-10T05:36:59.254Z,11.43
2023-06-10T05:39:26.440Z,11.60
2023-06-10T05:41:53.311Z,11.10
2023-06-10T05:44:20.267Z,11.73
2023-06-10T05:46:47.383Z,12.53
2023-06-10T05:49:14.782Z,12.30
2023-06-10T05:51:41.656Z,11.23
2023-06-10T05:54:08.537Z,12.80
2023-06-10T05:56:35.669Z,12.93
2023-06-10T05:59:02.626Z,11.60
2023-06-10T06:01:29.630Z,11.60
2023-06-10T06:03:56.581Z,12.10
2023-06-10T06:06:24.366Z,11.90
2023-06-10T06:08:51.260Z,11.80
2023-06-10T06:11:18.197Z,11.70
2023-06-10T06:13:45.159Z,13.00
2023-06-10T06:16:12.110Z,12.43
2023-06-10T06:18:39.027Z,12.20
2023-06-10T06:21:05.999Z,12.47
2023-06-10T06:23:32.944Z,11.73
2023-06-10T06:25:59.838Z,11.80
2023-06-10T06:28:30.505Z,12.33
2023-06-10T06:30:58.124Z,12.93
2023-06-10T06:33:27.504Z,11.87
2023-06-10T06:35:54.387Z,12.40
2023-06-10T06:38:21.267Z,10.53
2023-06-10T06:40:48.101Z,12.20
2023-06-10T06:43:15.032Z,11.13
2023-06-10T06:45:41.902Z,10.80
2023-06-10T06:48:08.848Z,11.13
2023-06-10T06:50:35.864Z,11.77
2023-06-10T06:53:02.756Z,11.00
2023-06-10T06:55:29.705Z,12.70
2023-06-10T06:57:56.946Z,11.93
2023-06-10T07:00:23.929Z,9.90
2023-06-10T07:02:51.016Z,10.83
2023-06-10T07:05:18.062Z,10.00
2023-06-10T07:07:45.007Z,10.63
2023-06-10T07:10:12.182Z,10.70
2023-06-10T07:12:39.055Z,9.90
2023-06-10T07:15:06.697Z,9.93
2023-06-10T07:17:33.818Z,10.17
2023-06-10T07:20:00.894Z,9.33
2023-06-10T07:22:27.929Z,9.33
2023-06-10T07:24:56.033Z,9.97
2023-06-10T07:27:22.993Z,9.50
2023-06-10T07:29:49.878Z,9.00
2023-06-10T07:32:19.381Z,8.80
2023-06-10T07:34:46.427Z,9.30
2023-06-10T07:37:13.285Z,8.57
2023-06-10T07:39:40.174Z,8.23
2023-06-10T07:42:07.716Z,8.10
2023-06-10T07:44:34.589Z,8.57
2023-06-10T07:47:01.597Z,8.20
2023-06-10T07:49:28.532Z,7.37
2023-06-10T07:51:56.894Z,7.90
2023-06-10T07:54:23.761Z,8.80
2023-06-10T07:56:50.848Z,8.07
2023-06-10T07:59:17.751Z,8.50
2023-06-10T08:01:44.655Z,7.63
2023-06-10T08:04:11.705Z,8.43
2023-06-10T08:06:38.691Z,7.57
2023-06-10T08:09:05.728Z,7.83
2023-06-10T08:11:32.631Z,7.43
2023-06-10T08:13:59.492Z,7.93
2023-06-10T08:18:57.319Z,7.20
2023-06-10T08:21:24.318Z,6.80
2023-06-10T08:23:54.717Z,8.10
2023-06-10T08:26:21.836Z,7.43
2023-06-10T08:28:50.429Z,7.90
2023-06-10T08:31:18.480Z,7.90
2023-06-10T08:33:46.579Z,7.33
2023-06-10T08:36:13.548Z,7.53
2023-06-10T08:38:40.537Z,7.47
2023-06-10T08:41:10.615Z,7.40
2023-06-10T08:43:43.160Z,8.50
2023-06-10T08:46:11.335Z,8.27
2023-06-10T08:48:48.098Z,7.67
2023-06-10T08:51:16.774Z,7.68
2023-06-10T08:53:54.224Z,7.90
2023-06-10T08:56:22.926Z,8.00
2023-06-10T08:58:50.021Z,7.53
2023-06-10T09:01:18.159Z,7.60
2023-06-10T09:03:45.417Z,7.43
2023-06-10T09:06:12.301Z,6.90
2023-06-10T09:08:40.122Z,7.77
2023-06-10T09:11:07.640Z,7.70
2023-06-10T09:13:34.523Z,7.97
2023-06-10T09:16:04.528Z,7.00
2023-06-10T09:18:31.976Z,7.80
2023-06-10T09:20:58.913Z,8.17
2023-06-10T09:23:26.595Z,7.40
2023-06-10T09:26:00.169Z,7.00
2023-06-10T09:28:27.328Z,6.53
2023-06-10T09:31:15.190Z,6.72
2023-06-10T09:33:42.332Z,6.85
2023-06-10T09:36:09.324Z,6.85
2023-06-10T09:38:36.692Z,7.45
2023-06-10T09:41:04.729Z,7.45
2023-06-10T09:43:43.051Z,7.50
2023-06-10T09:46:20.277Z,7.40
2023-06-10T09:48:48.736Z,6.85
2023-06-10T09:51:18.391Z,7.43
2023-06-10T09:53:50.827Z,7.30
2023-06-10T09:56:17.814Z,6.82
2023-06-10T09:58:47.346Z,7.00
2023-06-10T10:01:16.481Z,7.50
2023-06-10T10:03:52.254Z,7.40
2023-06-10T10:06:21.073Z,7.90
2023-06-10T10:08:50.443Z,6.83
2023-06-10T10:11:23.758Z,7.20
2023-06-10T10:13:54.484Z,7.40
2023-06-10T10:18:58.920Z,8.07
2023-06-10T10:21:28.337Z,7.87
2023-06-10T10:24:01.566Z,6.97
2023-06-10T10:26:28.728Z,7.30
2023-06-10T10:29:17.411Z,8.33
2023-06-10T10:31:46.039Z,6.87
2023-06-10T10:34:29.403Z,7.33
2023-06-10T10:36:56.276Z,6.90
2023-06-10T10:39:23.645Z,6.93
2023-06-10T10:41:51.885Z,6.50
2023-06-10T10:44:20.370Z,6.70
2023-06-10T10:46:51.893Z,6.37
2023-06-10T10:49:24.066Z,7.83
2023-06-10T10:51:58.870Z,6.73
2023-06-10T10:54:36.239Z,7.43
2023-06-10T10:57:17.139Z,6.93
2023-06-10T10:59:48.028Z,6.50
2023-06-10T11:02:19.631Z,6.87
2023-06-10T11:04:48.997Z,7.57
2023-06-10T11:07:22.880Z,7.07
2023-06-10T11:10:08.125Z,6.83
2023-06-10T11:12:46.945Z,7.40
2023-06-10T11:15:14.770Z,7.37
2023-06-10T11:18:07.919Z,9.30
2023-06-10T11:20:49.688Z,7.37
2023-06-10T11:23:28.756Z,6.67
2023-06-10T11:26:22.380Z,7.33
2023-06-10T11:28:49.262Z,7.27
2023-06-10T11:31:40.238Z,8.10
2023-06-10T11:34:09.006Z,7.93
2023-06-10T11:36:41.830Z,6.70
2023-06-10T11:39:09.250Z,6.63
2023-06-10T11:41:37.182Z,7.03
2023-06-10T11:44:19.543Z,7.07
2023-06-10T11:46:49.039Z,7.20
2023-06-10T11:49:15.922Z,7.40
2023-06-10T11:51:50.546Z,6.30
2023-06-10T11:54:18.587Z,7.30
2023-06-10T11:56:45.854Z,6.83
2023-06-10T11:59:13.230Z,6.70
2023-06-10T12:01:47.504Z,7.07
2023-06-10T12:04:27.224Z,7.20
2023-06-10T12:06:55.204Z,6.73
2023-06-10T12:09:25.853Z,7.60
2023-06-10T12:12:03.914Z,6.60
2023-06-10T12:14:57.977Z,7.30
2023-06-10T12:17:38.697Z,6.33
2023-06-10T12:20:09.442Z,6.90
2023-06-10T12:22:45.959Z,6.40
2023-06-10T12:25:15.341Z,6.57
2023-06-10T12:27:54.936Z,7.27
2023-06-10T12:30:27.591Z,6.73
2023-06-10T12:32:54.989Z,10.27
2023-06-10T12:35:27.431Z,7.20
2023-06-10T12:38:02.559Z,7.87
2023-06-10T12:40:37.627Z,7.70
2023-06-10T12:43:05.052Z,7.20
2023-06-10T12:45:36.051Z,6.80
2023-06-10T12:48:29.363Z,7.20
2023-06-10T12:50:59.568Z,6.30
2023-06-10T12:53:30.458Z,6.45
2023-06-10T12:55:57.671Z,6.90
2023-06-10T12:58:25.362Z,6.37
2023-06-10T13:00:54.440Z,7.03
2023-06-10T13:03:21.915Z,7.00
2023-06-10T13:05:49.763Z,6.30
2023-06-10T13:08:16.829Z,6.87
2023-06-10T13:10:43.909Z,7.23
2023-06-10T13:13:11.321Z,6.83
2023-06-10T13:15:42.705Z,7.37
2023-06-10T13:18:10.486Z,6.70
2023-06-10T13:20:37.618Z,6.35
2023-06-10T13:23:04.712Z,6.53
2023-06-10T13:25:31.695Z,6.60
2023-06-10T13:27:58.759Z,6.60
2023-06-10T13:30:26.026Z,6.80
2023-06-10T13:32:52.938Z,6.90
2023-06-10T13:35:19.924Z,6.87
2023-06-10T13:37:46.890Z,7.00
2023-06-10T13:40:13.919Z,7.38
2023-06-10T13:42:40.827Z,6.93
2023-06-10T13:45:08.552Z,6.17
2023-06-10T13:47:35.760Z,6.77
2023-06-10T13:50:03.104Z,6.10
2023-06-10T13:52:30.021Z,6.72
2023-06-10T13:54:56.905Z,6.90
2023-06-10T13:57:23.797Z,6.40
2023-06-10T13:59:50.684Z,7.20
2023-06-10T14:02:18.052Z,6.57
2023-06-10T14:04:45.042Z,7.07
2023-06-10T14:07:12.165Z,6.70
2023-06-10T14:09:39.029Z,5.67
2023-06-10T14:12:06.492Z,6.50
2023-06-10T14:14:34.411Z,6.60
2023-06-10T14:17:01.427Z,7.00
2023-06-10T14:19:28.427Z,6.95
2023-06-10T14:21:56.840Z,6.93
2023-06-10T14:24:23.932Z,6.45
2023-06-10T14:26:51.897Z,6.93
2023-06-10T14:29:20.821Z,6.35
2023-06-10T14:31:49.534Z,6.40
2023-06-10T14:34:16.622Z,12.30
2023-06-10T14:36:44.342Z,7.30
2023-06-10T14:39:17.505Z,6.90
2023-06-10T14:41:44.580Z,7.00
2023-06-10T14:44:11.452Z,6.10
2023-06-10T14:46:39.321Z,6.50
2023-06-10T14:49:06.314Z,7.10
2023-06-10T14:51:35.911Z,6.77
2023-06-10T14:54:03.714Z,6.23
2023-06-10T14:56:30.889Z,6.70
2023-06-10T14:58:57.795Z,5.80
2023-06-10T15:01:24.836Z,6.30
2023-06-10T15:03:51.795Z,6.63
2023-06-10T15:06:22.156Z,6.53
2023-06-10T15:08:51.993Z,6.28
2023-06-10T15:11:19.013Z,6.95
2023-06-10T15:13:45.924Z,6.65
2023-06-10T15:18:54.891Z,6.60
2023-06-10T15:21:21.749Z,6.65
2023-06-10T15:23:48.799Z,6.50
2023-06-10T15:26:16.161Z,6.78
2023-06-10T15:28:43.034Z,6.50
2023-06-10T15:31:10.078Z,6.70
2023-06-10T15:33:37.245Z,7.00
2023-06-10T15:36:06.132Z,7.10
2023-06-10T15:38:33.011Z,7.03
2023-06-10T15:40:59.883Z,7.40
2023-06-10T15:43:26.826Z,6.72
2023-06-10T15:45:53.781Z,6.53
2023-06-10T15:48:20.808Z,6.65
2023-06-10T15:50:47.834Z,6.90
2023-06-10T15:53:14.699Z,6.22
2023-06-10T15:55:41.567Z,7.40
2023-06-10T15:58:08.536Z,6.72
2023-06-10T16:00:35.540Z,5.97
2023-06-10T16:03:02.617Z,6.40
2023-06-10T16:05:29.652Z,6.38
2023-06-10T16:07:57.682Z,6.38
2023-06-10T16:10:26.900Z,6.60
2023-06-10T16:12:53.883Z,6.40
2023-06-10T16:15:20.782Z,7.07
2023-06-10T16:17:48.475Z,7.30
2023-06-10T16:20:15.667Z,6.93
2023-06-10T16:22:42.519Z,6.30
2023-06-10T16:25:09.837Z,6.77
2023-06-10T16:27:37.073Z,6.70
2023-06-10T16:30:04.356Z,6.63
2023-06-10T16:32:31.402Z,7.03
2023-06-10T16:34:58.411Z,6.93
2023-06-10T16:37:25.342Z,6.13
2023-06-10T16:39:52.454Z,6.90
2023-06-10T16:42:19.633Z,6.80
2023-06-10T16:44:46.508Z,5.93
2023-06-10T16:47:13.480Z,7.60
2023-06-10T16:49:40.492Z,7.10
2023-06-10T16:52:07.597Z,7.40
2023-06-10T16:54:34.575Z,7.40
2023-06-10T16:57:07.182Z,7.50
2023-06-10T16:59:34.541Z,7.70
2023-06-10T17:02:04.005Z,7.27
2023-06-10T17:04:38.073Z,9.67
2023-06-10T17:07:05.281Z,8.77
2023-06-10T17:09:33.150Z,8.40
2023-06-10T17:12:00.928Z,7.97
2023-06-10T17:14:31.047Z,7.00
2023-06-10T17:16:59.872Z,7.20
2023-06-10T17:19:27.918Z,7.70
2023-06-10T17:21:54.828Z,7.13
2023-06-10T17:24:22.105Z,7.90
2023-06-10T17:26:49.533Z,7.27
2023-06-10T17:29:16.537Z,7.03
2023-06-10T17:31:43.505Z,7.30
2023-06-10T17:34:10.497Z,7.07
2023-06-10T17:36:52.345Z,6.70
2023-06-10T17:39:19.330Z,7.67
2023-06-10T17:41:46.563Z,6.60
2023-06-10T17:44:13.556Z,6.60
2023-06-10T17:46:40.562Z,6.73
2023-06-10T17:49:07.565Z,7.10
2023-06-10T17:51:34.511Z,12.00
2023-06-10T17:54:01.925Z,7.07
2023-06-10T17:56:28.947Z,6.50
2023-06-10T17:58:56.051Z,6.10
2023-06-10T18:01:22.972Z,5.90
2023-06-10T18:03:49.940Z,6.50
2023-06-10T18:06:16.857Z,5.90
2023-06-10T18:08:43.806Z,5.83
2023-06-10T18:11:10.785Z,6.70
2023-06-10T18:13:37.656Z,6.73
2023-06-10T18:16:06.055Z,6.40
2023-06-10T18:18:33.085Z,6.77
2023-06-10T18:21:02.811Z,6.33
2023-06-10T18:23:30.160Z,6.80
2023-06-10T18:25:57.013Z,6.07
2023-06-10T18:28:24.508Z,5.87
2023-06-10T18:30:53.909Z,6.43
2023-06-10T18:33:20.859Z,5.60
2023-06-10T18:35:47.744Z,6.10
2023-06-10T18:38:14.722Z,6.17
2023-06-10T18:40:41.802Z,6.30
2023-06-10T18:43:08.902Z,5.57
2023-06-10T18:45:35.943Z,5.80
2023-06-10T18:48:02.892Z,7.60
2023-06-10T18:50:30.024Z,7.57
2023-06-10T18:52:57.534Z,6.50
2023-06-10T18:55:24.997Z,6.83
2023-06-10T18:57:51.974Z,7.10
2023-06-10T19:00:19.136Z,6.27
2023-06-10T19:02:46.163Z,6.40
2023-06-10T19:05:14.482Z,5.83
2023-06-10T19:07:41.455Z,6.63
2023-06-10T19:10:08.997Z,6.53
2023-06-10T19:12:36.071Z,6.23
2023-06-10T19:15:04.310Z,6.37
2023-06-10T19:17:31.567Z,6.60
2023-06-10T19:19:58.661Z,6.33
2023-06-10T19:22:25.591Z,6.50
2023-06-10T19:25:06.678Z,6.10
2023-06-10T19:27:34.470Z,6.20
2023-06-10T19:30:02.144Z,6.07
2023-06-10T19:32:29.318Z,6.10
2023-06-10T19:34:56.335Z,6.37
2023-06-10T19:37:23.318Z,5.60
2023-06-10T19:39:50.193Z,5.93
2023-06-10T19:42:17.198Z,6.37
2023-06-10T19:44:44.103Z,6.20
2023-06-10T19:47:11.963Z,6.27
2023-06-10T19:49:38.892Z,6.10
2023-06-10T19:52:08.039Z,6.03
2023-06-10T19:54:36.142Z,6.10
2023-06-10T19:57:03.816Z,6.10
2023-06-10T19:59:31.179Z,6.50
2023-06-10T20:01:58.263Z,6.40
2023-06-10T20:04:25.636Z,5.87
2023-06-10T20:06:52.570Z,6.20
2023-06-10T20:09:19.467Z,6.30
2023-06-10T20:11:46.360Z,7.17
2023-06-10T20:14:13.221Z,7.07
2023-06-10T20:16:40.260Z,6.20
2023-06-10T20:19:07.288Z,6.50
2023-06-10T20:21:34.263Z,6.00
2023-06-10T20:24:01.204Z,6.50
2023-06-10T20:26:28.134Z,6.57
2023-06-10T20:28:55.021Z,6.83
2023-06-10T20:31:22.743Z,7.30
2023-06-10T20:33:49.657Z,6.70
2023-06-10T20:36:16.835Z,7.47
2023-06-10T20:38:43.695Z,6.47
2023-06-10T20:41:10.646Z,7.07
2023-06-10T20:43:37.542Z,7.83
2023-06-10T20:46:04.715Z,7.63
2023-06-10T20:48:31.623Z,7.37
2023-06-10T20:50:58.592Z,7.30
2023-06-10T20:53:25.710Z,7.53
2023-06-10T20:55:52.649Z,7.10
2023-06-10T20:58:19.591Z,7.53
2023-06-10T21:00:47.409Z,6.83
2023-06-10T21:03:14.437Z,7.33
2023-06-10T21:05:41.651Z,7.23
2023-06-10T21:08:08.845Z,7.77
2023-06-10T21:10:35.885Z,7.37
2023-06-10T21:13:02.784Z,7.37
2023-06-10T21:15:29.629Z,7.50
2023-06-10T21:17:56.621Z,7.67
2023-06-10T21:20:24.183Z,6.93
2023-06-10T21:22:51.086Z,7.97
2023-06-10T21:25:18.062Z,6.87
2023-06-10T21:27:44.998Z,7.40
2023-06-10T21:30:12.157Z,6.93
2023-06-10T21:32:39.306Z,7.50
2023-06-10T21:35:06.753Z,7.30
2023-06-10T21:37:33.622Z,7.67
2023-06-10T21:40:00.524Z,7.40
2023-06-10T21:42:27.434Z,8.23
2023-06-10T21:44:54.317Z,8.07
2023-06-10T21:47:21.214Z,7.40
2023-06-10T21:49:49.325Z,7.70
2023-06-10T21:52:16.309Z,7.90
2023-06-10T21:54:43.232Z,8.40
2023-06-10T21:57:10.184Z,7.97
2023-06-10T21:59:37.731Z,8.50
2023-06-10T22:02:04.973Z,7.20
2023-06-10T22:04:31.862Z,7.97
2023-06-10T22:06:59.363Z,9.70
2023-06-10T22:09:26.275Z,8.23
2023-06-10T22:11:53.313Z,8.37
2023-06-10T22:14:20.313Z,8.20
2023-06-10T22:16:47.390Z,7.93
2023-06-10T22:19:14.320Z,8.03
2023-06-10T22:21:42.170Z,7.63
2023-06-10T22:24:09.482Z,8.43
2023-06-10T22:26:52.120Z,9.17
2023-06-10T22:29:20.133Z,8.53
2023-06-10T22:31:47.075Z,9.00
2023-06-10T22:34:13.985Z,8.23
2023-06-10T22:36:41.281Z,8.53
2023-06-10T22:39:13.274Z,8.00
2023-06-10T22:41:41.259Z,8.63
2023-06-10T22:44:08.175Z,9.00
2023-06-10T22:46:35.325Z,8.27
2023-06-10T22:49:02.463Z,8.93
2023-06-10T22:51:29.412Z,8.33
2023-06-10T22:53:56.452Z,8.50
2023-06-10T22:56:24.928Z,8.40
2023-06-10T22:58:52.115Z,8.13
2023-06-10T23:01:19.161Z,9.60
2023-06-10T23:03:47.486Z,8.00
2023-06-10T23:06:16.169Z,8.90
2023-06-10T23:08:43.181Z,8.70
2023-06-10T23:11:10.054Z,8.97
2023-06-10T23:13:36.910Z,8.57
2023-06-10T23:16:03.908Z,8.67
2023-06-10T23:18:31.032Z,10.13
2023-06-10T23:20:59.210Z,9.53
2023-06-10T23:23:35.673Z,9.07
2023-06-10T23:26:03.063Z,9.10
2023-06-10T23:28:30.035Z,8.50
2023-06-10T23:30:57.409Z,8.27
2023-06-10T23:33:25.095Z,8.90
2023-06-10T23:35:52.188Z,9.33
2023-06-10T23:38:19.168Z,8.87
2023-06-10T23:40:46.102Z,9.20
2023-06-10T23:43:14.254Z,9.77
2023-06-10T23:45:41.269Z,9.80
2023-06-10T23:48:08.479Z,8.77
2023-06-10T23:50:39.501Z,8.43
2023-06-10T23:53:06.961Z,8.30
2023-06-10T23:55:35.548Z,9.57
2023-06-10T23:58:03.815Z,9.40
